Time;durP1;ratioP1;P1;durP2;ratioP2;P2;SDS_P1;SDS_P2;PMS_P1;PMS_P2;Temp;Humidity;BMP_temperature;BMP_pressure;BME280_temperature;BME280_humidity;BME280_pressure;Samples;Min_cycle;Max_cycle;Signal;HPM_P1;HPM_P2
2021/07/29 00:00:42;;;;;;;15.55;6.88;;;;;;;;;;5116148;28;20119;-77
2021/07/29 00:03:08;;;;;;;16.52;7.07;;;;;;;;;;5116345;28;20363;-77
2021/07/29 00:05:36;;;;;;;19.13;8.05;;;;;;;;;;5116004;28;20058;-76
2021/07/29 00:08:03;;;;;;;14.52;7.03;;;;;;;;;;5114856;28;20393;-76
2021/07/29 00:10:30;;;;;;;16.40;7.50;;;;;;;;;;5113951;28;20066;-77
2021/07/29 00:12:57;;;;;;;17.20;7.25;;;;;;;;;;5116146;28;20027;-77
2021/07/29 00:15:24;;;;;;;18.77;7.38;;;;;;;;;;5115834;28;20157;-76
2021/07/29 00:20:17;;;;;;;12.48;7.30;;;;;;;;;;5115653;28;20426;-75
2021/07/29 00:22:44;;;;;;;12.63;6.45;;;;;;;;;;5115393;28;20127;-76
2021/07/29 00:25:14;;;;;;;19.48;8.20;;;;;;;;;;5115666;28;20031;-77
2021/07/29 00:27:40;;;;;;;17.67;8.20;;;;;;;;;;5115455;28;20027;-77
2021/07/29 00:30:07;;;;;;;12.50;6.90;;;;;;;;;;5115687;28;20030;-77
2021/07/29 00:32:34;;;;;;;15.60;6.95;;;;;;;;;;5115267;28;20023;-77
2021/07/29 00:35:02;;;;;;;14.48;6.68;;;;;;;;;;5115630;28;20043;-76
2021/07/29 00:37:28;;;;;;;16.92;7.90;;;;;;;;;;5115125;28;20098;-77
2021/07/29 00:39:54;;;;;;;12.30;7.22;;;;;;;;;;5115289;28;20027;-77
2021/07/29 00:42:20;;;;;;;14.48;7.40;;;;;;;;;;5115204;28;20492;-77
2021/07/29 00:44:46;;;;;;;13.60;6.38;;;;;;;;;;5114845;28;20020;-78
2021/07/29 00:47:13;;;;;;;15.43;7.07;;;;;;;;;;5115197;28;20024;-78
2021/07/29 00:49:39;;;;;;;11.80;6.50;;;;;;;;;;5115010;28;20023;-77
2021/07/29 00:52:05;;;;;;;15.30;7.00;;;;;;;;;;5115249;28;20478;-76
2021/07/29 00:54:31;;;;;;;15.82;6.72;;;;;;;;;;5114716;28;20060;-76
2021/07/29 00:56:58;;;;;;;13.20;7.00;;;;;;;;;;5115115;28;20102;-77
2021/07/29 00:59:24;;;;;;;15.55;7.82;;;;;;;;;;5115095;28;20462;-77
2021/07/29 01:01:50;;;;;;;17.20;7.05;;;;;;;;;;5114880;28;20409;-76
2021/07/29 01:04:17;;;;;;;15.90;7.15;;;;;;;;;;5114915;28;20028;-77
2021/07/29 01:06:43;;;;;;;16.63;7.78;;;;;;;;;;5114550;28;20028;-77
2021/07/29 01:09:10;;;;;;;16.10;7.82;;;;;;;;;;5114892;28;20110;-77
2021/07/29 01:11:37;;;;;;;17.52;7.53;;;;;;;;;;5114621;28;20024;-78
2021/07/29 01:14:03;;;;;;;17.90;8.10;;;;;;;;;;5114856;28;20100;-77
2021/07/29 01:16:29;;;;;;;13.65;6.82;;;;;;;;;;5114505;28;20024;-77
2021/07/29 01:18:56;;;;;;;17.58;7.30;;;;;;;;;;5114551;28;20027;-77
2021/07/29 01:21:22;;;;;;;18.17;9.43;;;;;;;;;;5114217;28;20048;-76
2021/07/29 01:23:48;;;;;;;16.13;7.68;;;;;;;;;;5114407;28;20385;-77
2021/07/29 01:26:14;;;;;;;14.80;7.22;;;;;;;;;;5114544;28;20063;-77
2021/07/29 01:28:41;;;;;;;16.83;8.50;;;;;;;;;;5114170;28;20106;-76
2021/07/29 01:31:07;;;;;;;18.35;8.77;;;;;;;;;;5114505;28;20099;-76
2021/07/29 01:33:33;;;;;;;14.88;8.38;;;;;;;;;;5114417;28;20102;-76
2021/07/29 01:35:59;;;;;;;12.57;8.05;;;;;;;;;;5114146;28;20032;-77
2021/07/29 01:38:25;;;;;;;18.08;8.25;;;;;;;;;;5114166;28;20031;-77
2021/07/29 01:40:51;;;;;;;16.30;8.02;;;;;;;;;;5113806;28;20535;-76
2021/07/29 01:43:17;;;;;;;20.08;8.30;;;;;;;;;;5114124;28;20027;-78
2021/07/29 01:45:46;;;;;;;16.50;7.38;;;;;;;;;;5113884;28;20364;-76
2021/07/29 01:48:13;;;;;;;15.13;7.70;;;;;;;;;;5114172;28;20051;-76
2021/07/29 01:50:39;;;;;;;13.90;7.65;;;;;;;;;;5114115;28;20024;-78
2021/07/29 01:53:05;;;;;;;14.25;7.80;;;;;;;;;;5113936;28;20490;-78
2021/07/29 01:55:31;;;;;;;15.80;7.45;;;;;;;;;;5113041;28;20065;-76
2021/07/29 01:57:57;;;;;;;20.90;7.18;;;;;;;;;;5113555;28;20023;-77
2021/07/29 02:00:24;;;;;;;13.48;7.30;;;;;;;;;;5113776;28;20040;-77
2021/07/29 02:02:50;;;;;;;15.13;7.65;;;;;;;;;;5113603;28;20019;-77
2021/07/29 02:05:16;;;;;;;16.95;8.57;;;;;;;;;;5113736;28;20363;-75
2021/07/29 02:07:42;;;;;;;18.05;7.85;;;;;;;;;;5113572;28;20055;-76
2021/07/29 02:10:08;;;;;;;14.23;7.47;;;;;;;;;;5113456;28;20031;-78
2021/07/29 02:12:34;;;;;;;15.07;8.02;;;;;;;;;;5113396;28;20024;-77
2021/07/29 02:15:01;;;;;;;15.32;7.82;;;;;;;;;;5113360;28;20394;-76
2021/07/29 02:17:27;;;;;;;15.23;7.75;;;;;;;;;;5113338;28;20408;-78
2021/07/29 02:19:53;;;;;;;15.73;7.40;;;;;;;;;;5113250;28;20466;-78
2021/07/29 02:22:19;;;;;;;19.85;8.70;;;;;;;;;;5113211;28;20059;-77
2021/07/29 02:24:45;;;;;;;17.70;9.40;;;;;;;;;;5113277;28;20019;-76
2021/07/29 02:27:11;;;;;;;18.48;8.48;;;;;;;;;;5113081;28;20148;-76
2021/07/29 02:29:39;;;;;;;17.70;9.18;;;;;;;;;;5113246;28;20085;-77
2021/07/29 02:32:05;;;;;;;16.33;9.15;;;;;;;;;;5113098;28;20359;-76
2021/07/29 02:34:31;;;;;;;15.88;8.90;;;;;;;;;;5113180;28;20036;-76
2021/07/29 02:36:57;;;;;;;19.90;8.93;;;;;;;;;;5113149;28;20032;-76
2021/07/29 02:39:23;;;;;;;19.35;9.07;;;;;;;;;;5112981;28;20438;-76
2021/07/29 02:41:49;;;;;;;15.77;9.25;;;;;;;;;;5112987;28;20099;-77
2021/07/29 02:44:16;;;;;;;15.07;9.40;;;;;;;;;;5112800;28;20027;-77
2021/07/29 02:46:42;;;;;;;12.63;8.00;;;;;;;;;;5112889;28;20027;-77
2021/07/29 02:49:08;;;;;;;15.60;8.75;;;;;;;;;;5112739;28;20030;-77
2021/07/29 02:51:34;;;;;;;14.88;8.07;;;;;;;;;;5112703;28;20023;-76
2021/07/29 02:54:00;;;;;;;16.10;8.07;;;;;;;;;;5113152;28;20027;-77
2021/07/29 02:56:26;;;;;;;19.38;9.10;;;;;;;;;;5112845;28;20031;-76
2021/07/29 02:58:52;;;;;;;129.90;21.02;;;;;;;;;;5113124;28;20550;-76
2021/07/29 03:01:18;;;;;;;37.30;10.55;;;;;;;;;;5112650;28;20042;-76
2021/07/29 03:03:45;;;;;;;31.15;9.55;;;;;;;;;;5112934;28;20045;-76
2021/07/29 03:06:11;;;;;;;15.15;8.18;;;;;;;;;;5112461;28;20034;-76
2021/07/29 03:08:38;;;;;;;17.60;8.20;;;;;;;;;;5112725;28;20023;-76
2021/07/29 03:11:04;;;;;;;22.70;8.77;;;;;;;;;;5112881;28;20027;-77
2021/07/29 03:13:30;;;;;;;22.17;9.98;;;;;;;;;;5112765;28;20098;-76
2021/07/29 03:15:56;;;;;;;23.20;9.63;;;;;;;;;;5112800;28;20419;-76
2021/07/29 03:18:23;;;;;;;19.83;8.55;;;;;;;;;;5112532;28;20116;-77
2021/07/29 03:20:49;;;;;;;17.85;9.20;;;;;;;;;;5112472;28;20052;-76
2021/07/29 03:23:15;;;;;;;15.50;9.13;;;;;;;;;;5112461;28;20027;-76
2021/07/29 03:25:41;;;;;;;17.42;8.32;;;;;;;;;;5112741;28;20035;-76
2021/07/29 03:28:07;;;;;;;19.02;8.88;;;;;;;;;;5112713;28;20106;-76
2021/07/29 03:30:33;;;;;;;19.35;9.30;;;;;;;;;;5112432;28;20032;-76
2021/07/29 03:33:00;;;;;;;19.70;9.77;;;;;;;;;;5112708;28;20118;-75
2021/07/29 03:35:26;;;;;;;22.38;9.70;;;;;;;;;;5112465;28;20027;-77
2021/07/29 03:37:52;;;;;;;16.52;9.68;;;;;;;;;;5112639;28;20032;-77
2021/07/29 03:40:18;;;;;;;14.02;7.57;;;;;;;;;;5112473;28;20028;-77
2021/07/29 03:42:44;;;;;;;18.50;8.25;;;;;;;;;;5112529;28;20032;-76
2021/07/29 03:45:11;;;;;;;14.07;8.00;;;;;;;;;;5112430;28;20301;-77
2021/07/29 03:47:37;;;;;;;14.20;7.90;;;;;;;;;;5112314;28;20023;-76
2021/07/29 03:50:03;;;;;;;19.08;8.52;;;;;;;;;;5112457;28;20386;-77
2021/07/29 03:52:29;;;;;;;16.05;8.23;;;;;;;;;;5112304;28;20042;-77
2021/07/29 03:54:55;;;;;;;16.65;8.75;;;;;;;;;;5112408;28;20070;-77
2021/07/29 03:57:23;;;;;;;17.58;9.00;;;;;;;;;;5112393;28;20359;-76
2021/07/29 03:59:50;;;;;;;14.07;7.93;;;;;;;;;;5112244;28;20020;-77
2021/07/29 04:02:16;;;;;;;20.90;9.25;;;;;;;;;;5112477;28;20067;-76
2021/07/29 04:04:42;;;;;;;21.65;9.23;;;;;;;;;;5111996;28;20534;-76
2021/07/29 04:07:08;;;;;;;19.85;9.50;;;;;;;;;;5112473;28;20466;-76
2021/07/29 04:09:36;;;;;;;18.55;8.98;;;;;;;;;;5112153;28;20428;-76
2021/07/29 04:12:03;;;;;;;21.23;10.30;;;;;;;;;;5112401;28;20054;-76
2021/07/29 04:14:29;;;;;;;16.50;9.63;;;;;;;;;;5111990;28;20059;-76
2021/07/29 04:16:56;;;;;;;19.88;9.88;;;;;;;;;;5111741;28;20080;-76
2021/07/29 04:19:22;;;;;;;18.10;9.48;;;;;;;;;;5114376;28;20482;-76
2021/07/29 04:21:49;;;;;;;22.73;9.32;;;;;;;;;;5115290;28;20052;-76
2021/07/29 04:24:15;;;;;;;20.25;8.25;;;;;;;;;;5115888;28;20052;-76
2021/07/29 04:26:41;;;;;;;13.65;8.35;;;;;;;;;;5115535;28;20059;-76
2021/07/29 04:29:07;;;;;;;15.93;8.52;;;;;;;;;;5115618;28;20095;-76
2021/07/29 04:31:33;;;;;;;17.10;8.10;;;;;;;;;;5115390;28;20107;-76
2021/07/29 04:34:00;;;;;;;16.58;8.43;;;;;;;;;;5115439;28;20027;-77
2021/07/29 04:36:26;;;;;;;15.45;8.10;;;;;;;;;;5115513;28;20477;-76
2021/07/29 04:38:52;;;;;;;18.52;8.38;;;;;;;;;;5115371;28;20072;-76
2021/07/29 04:41:18;;;;;;;16.10;8.05;;;;;;;;;;5115195;28;20531;-76
2021/07/29 04:43:44;;;;;;;18.73;8.20;;;;;;;;;;5115137;28;20026;-76
2021/07/29 04:46:10;;;;;;;15.88;8.77;;;;;;;;;;5115115;28;20489;-76
2021/07/29 04:48:36;;;;;;;17.10;9.10;;;;;;;;;;5114978;28;20059;-77
2021/07/29 04:51:06;;;;;;;14.77;8.60;;;;;;;;;;5114997;28;20378;-76
2021/07/29 04:53:32;;;;;;;14.77;7.85;;;;;;;;;;5114946;28;20098;-76
2021/07/29 04:55:59;;;;;;;20.67;13.05;;;;;;;;;;5115041;28;20027;-77
2021/07/29 04:58:25;;;;;;;23.65;14.77;;;;;;;;;;5129825;27;20116;-76
2021/07/29 05:00:51;;;;;;;18.70;10.52;;;;;;;;;;5135094;27;20511;-76
2021/07/29 05:03:17;;;;;;;18.10;9.30;;;;;;;;;;5135600;27;20026;-76
2021/07/29 05:05:43;;;;;;;15.07;9.10;;;;;;;;;;5134957;27;20350;-77
2021/07/29 05:08:09;;;;;;;16.17;8.77;;;;;;;;;;5135264;27;20027;-76
2021/07/29 05:10:35;;;;;;;19.70;8.80;;;;;;;;;;5135128;27;20023;-77
2021/07/29 05:13:01;;;;;;;17.67;9.40;;;;;;;;;;5134512;27;20028;-78
2021/07/29 05:15:28;;;;;;;23.00;10.63;;;;;;;;;;5135320;27;20023;-78
2021/07/29 05:17:56;;;;;;;16.00;8.85;;;;;;;;;;5134558;27;20038;-75
2021/07/29 05:20:23;;;;;;;12.52;7.85;;;;;;;;;;5133930;27;20055;-77
2021/07/29 05:22:49;;;;;;;19.25;8.95;;;;;;;;;;5134553;27;20045;-78
2021/07/29 05:25:22;;;;;;;14.48;8.45;;;;;;;;;;5134758;27;20026;-79
2021/07/29 05:27:49;;;;;;;19.20;8.63;;;;;;;;;;5133430;27;20027;-79
2021/07/29 05:30:15;;;;;;;16.73;8.98;;;;;;;;;;5134326;27;20430;-77
2021/07/29 05:32:41;;;;;;;19.98;9.77;;;;;;;;;;5116170;27;20023;-76
2021/07/29 05:35:08;;;;;;;18.20;8.77;;;;;;;;;;5128354;27;20079;-77
2021/07/29 05:37:34;;;;;;;19.80;9.45;;;;;;;;;;5134578;27;20105;-77
2021/07/29 05:40:00;;;;;;;17.83;9.40;;;;;;;;;;5132519;27;20497;-77
2021/07/29 05:42:26;;;;;;;19.73;10.05;;;;;;;;;;5113975;28;20039;-77
2021/07/29 05:44:52;;;;;;;18.30;10.25;;;;;;;;;;5129535;27;20068;-77
2021/07/29 05:47:20;;;;;;;16.75;9.27;;;;;;;;;;5134446;27;20027;-80
2021/07/29 05:49:46;;;;;;;18.17;9.35;;;;;;;;;;5133803;27;20110;-78
2021/07/29 05:52:12;;;;;;;18.83;12.48;;;;;;;;;;5133944;27;20034;-77
2021/07/29 05:54:39;;;;;;;33.33;23.27;;;;;;;;;;5133836;27;20030;-78
2021/07/29 05:57:05;;;;;;;36.08;25.35;;;;;;;;;;5134229;27;20122;-77
2021/07/29 05:59:31;;;;;;;24.77;14.45;;;;;;;;;;5133943;27;20497;-80
2021/07/29 06:01:57;;;;;;;20.42;10.82;;;;;;;;;;5132807;27;20038;-81
2021/07/29 06:04:23;;;;;;;20.60;11.52;;;;;;;;;;5133753;27;20114;-79
2021/07/29 06:06:49;;;;;;;25.30;11.82;;;;;;;;;;5134184;27;20449;-77
2021/07/29 06:09:15;;;;;;;18.42;12.13;;;;;;;;;;5133781;27;20027;-80
2021/07/29 06:11:41;;;;;;;22.35;12.40;;;;;;;;;;5133134;27;20512;-79
2021/07/29 06:14:10;;;;;;;18.48;11.95;;;;;;;;;;5133548;27;20050;-78
2021/07/29 06:16:36;;;;;;;23.25;13.75;;;;;;;;;;5134083;27;20023;-78
2021/07/29 06:19:08;;;;;;;25.02;15.10;;;;;;;;;;5133203;27;20034;-80
2021/07/29 06:21:34;;;;;;;21.67;13.02;;;;;;;;;;5133564;27;20135;-78
2021/07/29 06:24:01;;;;;;;21.48;15.55;;;;;;;;;;5133651;27;20493;-80
2021/07/29 06:26:27;;;;;;;18.98;13.48;;;;;;;;;;5133636;27;20031;-78
2021/07/29 06:28:53;;;;;;;22.75;14.50;;;;;;;;;;5133710;27;20034;-78
2021/07/29 06:31:19;;;;;;;28.13;15.38;;;;;;;;;;5132470;27;20030;-79
2021/07/29 06:33:45;;;;;;;25.52;15.40;;;;;;;;;;5132005;27;20023;-77
2021/07/29 06:36:11;;;;;;;29.67;14.32;;;;;;;;;;5132942;27;20035;-77
2021/07/29 06:38:38;;;;;;;23.77;13.75;;;;;;;;;;5132702;27;20031;-79
2021/07/29 06:41:05;;;;;;;22.45;14.98;;;;;;;;;;5132499;27;20031;-78
2021/07/29 06:43:31;;;;;;;20.13;14.93;;;;;;;;;;5133469;27;20031;-76
2021/07/29 06:46:02;;;;;;;29.08;15.73;;;;;;;;;;5133621;27;20035;-78
2021/07/29 06:48:28;;;;;;;22.88;16.58;;;;;;;;;;5133146;27;20023;-79
2021/07/29 06:50:54;;;;;;;27.60;16.20;;;;;;;;;;5133309;27;20042;-77
2021/07/29 06:53:20;;;;;;;29.75;15.40;;;;;;;;;;5132432;27;20027;-75
2021/07/29 06:55:46;;;;;;;21.50;14.60;;;;;;;;;;5133269;27;20030;-76
2021/07/29 06:58:13;;;;;;;25.48;16.13;;;;;;;;;;5132847;27;20057;-79
2021/07/29 07:00:39;;;;;;;26.02;14.65;;;;;;;;;;5133498;27;20023;-84
2021/07/29 07:03:05;;;;;;;20.10;13.30;;;;;;;;;;5132874;27;20031;-79
2021/07/29 07:05:31;;;;;;;23.25;14.98;;;;;;;;;;5132935;27;20027;-73
2021/07/29 07:07:57;;;;;;;25.73;16.20;;;;;;;;;;5133462;27;20034;-73
2021/07/29 07:10:23;;;;;;;24.92;16.33;;;;;;;;;;5132731;27;20031;-81
2021/07/29 07:12:50;;;;;;;28.52;22.27;;;;;;;;;;5133470;28;20026;-75
2021/07/29 07:15:16;;;;;;;21.05;14.30;;;;;;;;;;5131807;28;20034;-76
2021/07/29 07:17:42;;;;;;;22.95;13.10;;;;;;;;;;5132914;28;20035;-75
2021/07/29 07:20:09;;;;;;;23.48;14.40;;;;;;;;;;5130637;28;20055;-75
2021/07/29 07:22:36;;;;;;;22.30;15.00;;;;;;;;;;5132992;28;20055;-76
2021/07/29 07:25:03;;;;;;;20.33;13.25;;;;;;;;;;5131900;28;20488;-75
2021/07/29 07:27:29;;;;;;;21.40;16.23;;;;;;;;;;5122042;28;20020;-78
2021/07/29 07:29:55;;;;;;;26.02;21.90;;;;;;;;;;5122234;28;20024;-79
2021/07/29 07:32:21;;;;;;;24.92;17.83;;;;;;;;;;5119089;28;20043;-77
2021/07/29 07:34:47;;;;;;;28.05;21.27;;;;;;;;;;5123195;28;20500;-78
2021/07/29 07:37:13;;;;;;;29.83;21.48;;;;;;;;;;5127332;28;20050;-80
2021/07/29 07:39:39;;;;;;;32.03;17.95;;;;;;;;;;5125263;28;20035;-78
2021/07/29 07:42:05;;;;;;;23.50;15.13;;;;;;;;;;5120783;28;20064;-77
2021/07/29 07:44:32;;;;;;;23.13;16.60;;;;;;;;;;5124594;28;20024;-76
2021/07/29 07:46:58;;;;;;;33.83;15.63;;;;;;;;;;5125571;28;20015;-79
2021/07/29 07:49:24;;;;;;;26.25;16.35;;;;;;;;;;5123740;28;20031;-79
2021/07/29 07:51:50;;;;;;;22.70;15.65;;;;;;;;;;5123714;28;20031;-79
2021/07/29 07:54:16;;;;;;;25.23;17.17;;;;;;;;;;5126533;27;20034;-79
2021/07/29 07:56:45;;;;;;;22.10;14.65;;;;;;;;;;5126407;27;20023;-77
2021/07/29 07:59:12;;;;;;;21.40;14.85;;;;;;;;;;5129293;27;20046;-79
2021/07/29 08:01:38;;;;;;;24.80;15.15;;;;;;;;;;5131136;27;20039;-76
2021/07/29 08:04:05;;;;;;;22.63;13.60;;;;;;;;;;5127343;27;20031;-77
2021/07/29 08:06:31;;;;;;;25.80;14.20;;;;;;;;;;5117109;27;20439;-76
2021/07/29 08:08:57;;;;;;;23.70;15.88;;;;;;;;;;5116181;28;20069;-76
2021/07/29 08:11:24;;;;;;;23.13;14.60;;;;;;;;;;5129978;27;20042;-76
2021/07/29 08:13:50;;;;;;;19.85;13.48;;;;;;;;;;5136358;27;20038;-77
2021/07/29 08:16:16;;;;;;;20.45;12.75;;;;;;;;;;5135929;27;20019;-77
2021/07/29 08:18:42;;;;;;;26.42;14.77;;;;;;;;;;5135931;27;20027;-76
2021/07/29 08:21:09;;;;;;;19.58;12.60;;;;;;;;;;5135429;27;20469;-78
2021/07/29 08:23:36;;;;;;;23.20;13.55;;;;;;;;;;5136111;27;20035;-78
2021/07/29 08:26:02;;;;;;;22.00;13.05;;;;;;;;;;5136092;27;20027;-78
2021/07/29 08:28:28;;;;;;;29.20;18.13;;;;;;;;;;5135815;27;20023;-79
2021/07/29 08:30:54;;;;;;;25.02;16.05;;;;;;;;;;5136218;27;20067;-78
2021/07/29 08:33:22;;;;;;;26.15;15.07;;;;;;;;;;5135532;27;20477;-80
2021/07/29 08:35:48;;;;;;;21.90;13.65;;;;;;;;;;5135636;27;20485;-77
2021/07/29 08:38:14;;;;;;;22.05;14.68;;;;;;;;;;5135832;27;20027;-78
2021/07/29 08:40:40;;;;;;;24.58;15.60;;;;;;;;;;5135467;27;20027;-79
2021/07/29 08:43:07;;;;;;;24.38;17.83;;;;;;;;;;5135126;27;20037;-79
2021/07/29 08:45:36;;;;;;;23.67;14.63;;;;;;;;;;5135726;27;20477;-78
2021/07/29 08:48:03;;;;;;;23.25;15.38;;;;;;;;;;5135356;27;20027;-75
2021/07/29 08:50:29;;;;;;;17.10;12.52;;;;;;;;;;5135344;27;20096;-81
2021/07/29 08:52:55;;;;;;;25.05;14.90;;;;;;;;;;5135093;27;20102;-80
2021/07/29 08:55:21;;;;;;;21.63;14.38;;;;;;;;;;5133929;27;20633;-78
2021/07/29 08:57:47;;;;;;;23.70;14.07;;;;;;;;;;5133323;27;20045;-76
2021/07/29 09:00:14;;;;;;;22.58;13.45;;;;;;;;;;5134063;27;20023;-77
2021/07/29 09:02:40;;;;;;;21.40;12.35;;;;;;;;;;5134395;27;20043;-79
2021/07/29 09:05:10;;;;;;;128.80;30.13;;;;;;;;;;5134836;27;20031;-78
2021/07/29 09:07:36;;;;;;;30.55;14.70;;;;;;;;;;5134395;27;20042;-81
2021/07/29 09:13:05;;;;;;;24.73;12.02;;;;;;;;;;5134249;27;20053;-80
2021/07/29 09:15:32;;;;;;;18.48;10.60;;;;;;;;;;5134331;27;20126;-76
2021/07/29 09:17:58;;;;;;;21.38;12.65;;;;;;;;;;5132943;27;20034;-78
2021/07/29 09:20:24;;;;;;;20.88;12.77;;;;;;;;;;5133378;27;20438;-76
2021/07/29 09:22:52;;;;;;;28.00;13.27;;;;;;;;;;5134171;27;20031;-79
2021/07/29 09:25:20;;;;;;;20.20;11.65;;;;;;;;;;5134659;27;20038;-79
2021/07/29 09:27:50;;;;;;;26.20;13.52;;;;;;;;;;5135004;27;20019;-79
2021/07/29 09:30:19;;;;;;;18.38;12.50;;;;;;;;;;5133893;27;20557;-75
2021/07/29 09:33:05;;;;;;;21.05;13.10;;;;;;;;;;5134443;27;20450;-78
2021/07/29 09:35:35;;;;;;;23.52;13.10;;;;;;;;;;5131138;27;20039;-75
2021/07/29 09:38:02;;;;;;;22.90;13.23;;;;;;;;;;5133022;27;20038;-76
2021/07/29 09:40:40;;;;;;;21.52;11.77;;;;;;;;;;5134343;27;20031;-75
2021/07/29 09:45:56;;;;;;;16.85;11.20;;;;;;;;;;5134054;27;20049;-77
2021/07/29 09:48:23;;;;;;;21.77;11.75;;;;;;;;;;5134539;27;20023;-76
2021/07/29 09:50:50;;;;;;;20.92;10.82;;;;;;;;;;5134009;27;20549;-78
2021/07/29 09:53:16;;;;;;;18.80;10.18;;;;;;;;;;5134360;27;20069;-76
2021/07/29 09:55:42;;;;;;;18.83;10.32;;;;;;;;;;5134695;27;20023;-79
2021/07/29 09:58:08;;;;;;;17.70;10.23;;;;;;;;;;5134314;27;20023;-80
2021/07/29 10:00:36;;;;;;;31.83;11.98;;;;;;;;;;5133879;27;20027;-78
2021/07/29 10:03:03;;;;;;;19.27;10.27;;;;;;;;;;5133441;27;20492;-78
2021/07/29 10:05:37;;;;;;;18.17;9.73;;;;;;;;;;5134113;27;20062;-78
2021/07/29 10:08:05;;;;;;;25.08;10.93;;;;;;;;;;5133796;27;20027;-79
2021/07/29 10:10:32;;;;;;;18.15;9.50;;;;;;;;;;5132843;27;20477;-80
2021/07/29 10:12:58;;;;;;;18.70;9.05;;;;;;;;;;5133988;27;20140;-76
2021/07/29 10:15:43;;;;;;;21.08;10.50;;;;;;;;;;5133155;27;20034;-77
2021/07/29 10:18:10;;;;;;;18.33;8.98;;;;;;;;;;5133367;27;20214;-78
2021/07/29 10:20:37;;;;;;;23.23;9.65;;;;;;;;;;5133583;27;20035;-76
2021/07/29 10:23:18;;;;;;;22.83;9.00;;;;;;;;;;5133407;27;20058;-81
2021/07/29 10:25:53;;;;;;;18.23;8.60;;;;;;;;;;5133782;27;20038;-77
2021/07/29 10:28:25;;;;;;;16.73;8.40;;;;;;;;;;5133673;27;20019;-78
2021/07/29 10:30:52;;;;;;;18.25;8.07;;;;;;;;;;5133600;27;20027;-81
2021/07/29 10:33:18;;;;;;;19.27;8.73;;;;;;;;;;5132832;27;20378;-82
2021/07/29 10:35:44;;;;;;;17.42;8.38;;;;;;;;;;5132102;27;20410;-81
2021/07/29 10:38:11;;;;;;;19.65;9.57;;;;;;;;;;5130294;27;20765;-77
2021/07/29 10:40:40;;;;;;;20.25;7.70;;;;;;;;;;5113193;28;20023;-78
2021/07/29 10:43:25;;;;;;;19.20;6.80;;;;;;;;;;5112535;28;20032;-79
2021/07/29 10:45:52;;;;;;;19.17;11.48;;;;;;;;;;5112129;28;20030;-78
2021/07/29 10:48:43;;;;;;;16.95;6.88;;;;;;;;;;5133008;27;20046;-77
2021/07/29 10:54:13;;;;;;;23.77;7.57;;;;;;;;;;5133002;27;20529;-77
2021/07/29 10:56:39;;;;;;;15.60;6.85;;;;;;;;;;5133794;27;20023;-76
2021/07/29 10:59:05;;;;;;;16.20;6.95;;;;;;;;;;5131473;27;20409;-77
2021/07/29 11:01:47;;;;;;;18.23;6.97;;;;;;;;;;5129662;27;20046;-76
2021/07/29 11:04:14;;;;;;;22.45;7.57;;;;;;;;;;5132491;27;20030;-77
2021/07/29 11:06:54;;;;;;;19.00;6.70;;;;;;;;;;5132723;27;20465;-78
2021/07/29 11:09:21;;;;;;;17.45;6.50;;;;;;;;;;5132781;27;20373;-80
2021/07/29 11:11:48;;;;;;;17.13;6.55;;;;;;;;;;5130766;27;20031;-73
2021/07/29 11:14:21;;;;;;;17.75;6.53;;;;;;;;;;5132528;27;20043;-73
2021/07/29 11:16:50;;;;;;;17.27;6.40;;;;;;;;;;5133482;28;20027;-71
2021/07/29 11:19:16;;;;;;;15.10;6.43;;;;;;;;;;5132673;28;20056;-74
2021/07/29 11:21:42;;;;;;;25.42;12.20;;;;;;;;;;5131607;28;20111;-71
2021/07/29 11:24:27;;;;;;;17.50;6.93;;;;;;;;;;5131974;28;20027;-70
2021/07/29 11:26:57;;;;;;;18.80;6.65;;;;;;;;;;5132738;27;20023;-74
2021/07/29 11:29:30;;;;;;;13.15;6.13;;;;;;;;;;5134791;27;20570;-71
2021/07/29 11:31:57;;;;;;;13.05;6.65;;;;;;;;;;5136994;27;20042;-73
2021/07/29 11:34:33;;;;;;;16.05;6.18;;;;;;;;;;5136760;27;20046;-73
2021/07/29 11:36:59;;;;;;;21.45;6.40;;;;;;;;;;5136729;27;20494;-77
2021/07/29 11:39:26;;;;;;;12.70;5.43;;;;;;;;;;5136827;27;20035;-78
2021/07/29 11:41:53;;;;;;;20.42;5.95;;;;;;;;;;5137106;27;20031;-77
2021/07/29 11:44:20;;;;;;;20.15;6.93;;;;;;;;;;5136139;27;20023;-75
2021/07/29 11:46:53;;;;;;;30.25;7.70;;;;;;;;;;5136989;27;20023;-76
2021/07/29 11:49:19;;;;;;;17.85;5.70;;;;;;;;;;5135491;27;20023;-76
2021/07/29 11:52:04;;;;;;;18.08;5.88;;;;;;;;;;5135727;27;20027;-76
2021/07/29 11:54:33;;;;;;;23.55;6.03;;;;;;;;;;5133935;27;20138;-80
2021/07/29 11:57:00;;;;;;;22.27;7.43;;;;;;;;;;5130597;27;20473;-76
2021/07/29 11:59:33;;;;;;;21.38;6.32;;;;;;;;;;5116805;27;20498;-75
2021/07/29 12:02:00;;;;;;;14.70;5.60;;;;;;;;;;5136435;27;20042;-75
2021/07/29 12:04:27;;;;;;;17.38;6.22;;;;;;;;;;5135775;27;20374;-74
2021/07/29 12:06:53;;;;;;;17.80;5.68;;;;;;;;;;5135862;27;20031;-76
2021/07/29 12:09:20;;;;;;;16.77;6.95;;;;;;;;;;5136757;27;20019;-75
2021/07/29 12:11:47;;;;;;;22.88;6.75;;;;;;;;;;5136447;27;20401;-75
2021/07/29 12:14:13;;;;;;;25.35;10.52;;;;;;;;;;5135953;27;20023;-76
2021/07/29 12:16:47;;;;;;;16.10;5.57;;;;;;;;;;5136652;27;20110;-77
2021/07/29 12:19:14;;;;;;;24.55;7.80;;;;;;;;;;5136138;27;20066;-76
2021/07/29 12:21:40;;;;;;;26.00;6.68;;;;;;;;;;5135388;27;20047;-76
2021/07/29 12:24:06;;;;;;;22.08;6.82;;;;;;;;;;5136210;27;20087;-75
2021/07/29 12:26:32;;;;;;;20.48;6.38;;;;;;;;;;5134945;27;20037;-76
2021/07/29 12:28:58;;;;;;;26.75;6.75;;;;;;;;;;5135831;27;20470;-75
2021/07/29 12:31:25;;;;;;;18.48;5.82;;;;;;;;;;5136024;27;20366;-75
2021/07/29 12:33:57;;;;;;;18.25;5.43;;;;;;;;;;5135851;27;20031;-76
2021/07/29 12:36:23;;;;;;;19.23;5.45;;;;;;;;;;5134733;27;20042;-76
2021/07/29 12:39:00;;;;;;;21.52;9.75;;;;;;;;;;5127272;27;20467;-75
2021/07/29 12:41:31;;;;;;;21.58;5.70;;;;;;;;;;5120002;27;20035;-76
2021/07/29 12:44:10;;;;;;;16.10;4.90;;;;;;;;;;5134925;27;20030;-78
2021/07/29 12:46:36;;;;;;;15.70;6.03;;;;;;;;;;5126683;27;20027;-75
2021/07/29 12:49:02;;;;;;;18.75;5.25;;;;;;;;;;5134738;27;20027;-76
2021/07/29 12:51:47;;;;;;;21.30;6.25;;;;;;;;;;5135232;27;20024;-75
2021/07/29 12:54:14;;;;;;;21.95;6.68;;;;;;;;;;5135281;27;20036;-75
2021/07/29 12:56:41;;;;;;;20.33;5.75;;;;;;;;;;5135539;27;20076;-75
2021/07/29 12:59:07;;;;;;;14.90;5.82;;;;;;;;;;5135625;27;20031;-76
2021/07/29 13:01:34;;;;;;;23.80;6.13;;;;;;;;;;5134619;27;20042;-76
2021/07/29 13:04:00;;;;;;;22.30;5.63;;;;;;;;;;5135603;27;20026;-74
2021/07/29 13:06:26;;;;;;;17.52;6.13;;;;;;;;;;5135371;27;20054;-75
2021/07/29 13:08:53;;;;;;;19.58;6.07;;;;;;;;;;5135686;27;20035;-74
2021/07/29 13:11:20;;;;;;;19.08;5.82;;;;;;;;;;5135591;27;20034;-75
2021/07/29 13:13:47;;;;;;;19.27;6.38;;;;;;;;;;5134811;27;20027;-74
2021/07/29 13:16:13;;;;;;;24.73;6.32;;;;;;;;;;5135650;27;20102;-76
2021/07/29 13:18:39;;;;;;;18.98;6.38;;;;;;;;;;5135314;27;20030;-74
2021/07/29 13:21:06;;;;;;;17.52;6.57;;;;;;;;;;5133856;27;20104;-74
2021/07/29 13:23:32;;;;;;;19.33;5.95;;;;;;;;;;5134914;27;20058;-75
2021/07/29 13:25:58;;;;;;;18.10;6.15;;;;;;;;;;5135234;27;20145;-75
2021/07/29 13:28:25;;;;;;;17.73;6.00;;;;;;;;;;5134825;27;20023;-74
2021/07/29 13:30:52;;;;;;;19.80;5.78;;;;;;;;;;5134959;27;20030;-72
2021/07/29 13:33:18;;;;;;;20.38;6.25;;;;;;;;;;5135049;27;20023;-73
2021/07/29 13:35:45;;;;;;;18.98;5.88;;;;;;;;;;5134571;27;20023;-74
2021/07/29 13:38:11;;;;;;;19.45;6.25;;;;;;;;;;5135149;27;20062;-76
2021/07/29 13:40:38;;;;;;;22.17;6.78;;;;;;;;;;5135080;27;20489;-74
2021/07/29 13:43:04;;;;;;;17.77;5.40;;;;;;;;;;5134567;27;20031;-77
2021/07/29 13:45:31;;;;;;;19.02;6.43;;;;;;;;;;5135281;27;20019;-77
2021/07/29 13:47:59;;;;;;;23.08;6.57;;;;;;;;;;5134923;27;20027;-76
2021/07/29 13:50:27;;;;;;;17.92;5.05;;;;;;;;;;5134129;27;20023;-75
2021/07/29 13:52:54;;;;;;;18.15;6.18;;;;;;;;;;5133969;27;20035;-75
2021/07/29 13:55:20;;;;;;;16.08;5.10;;;;;;;;;;5134901;27;20037;-77
2021/07/29 13:57:47;;;;;;;24.67;6.78;;;;;;;;;;5134281;27;20076;-75
2021/07/29 14:00:14;;;;;;;12.65;5.15;;;;;;;;;;5134933;27;20046;-75
2021/07/29 14:02:41;;;;;;;18.55;5.85;;;;;;;;;;5134331;27;20091;-76
2021/07/29 14:05:08;;;;;;;20.95;6.03;;;;;;;;;;5134253;27;20422;-76
2021/07/29 14:07:34;;;;;;;18.27;5.97;;;;;;;;;;5134579;27;20038;-75
2021/07/29 14:10:00;;;;;;;21.38;6.32;;;;;;;;;;5134133;27;20031;-75
2021/07/29 14:12:27;;;;;;;18.17;5.80;;;;;;;;;;5134355;27;20078;-75
2021/07/29 14:14:54;;;;;;;19.02;5.90;;;;;;;;;;5134146;27;20034;-77
2021/07/29 14:17:59;;;;;;;19.73;6.32;;;;;;;;;;5134450;27;20031;-76
2021/07/29 14:20:26;;;;;;;18.55;6.05;;;;;;;;;;5131543;27;20039;-76
2021/07/29 14:25:37;;;;;;;20.02;5.53;;;;;;;;;;5134231;27;20126;-76
2021/07/29 14:28:04;;;;;;;18.58;6.03;;;;;;;;;;5133647;27;20111;-77
2021/07/29 14:30:30;;;;;;;18.23;5.70;;;;;;;;;;5134341;27;20080;-76
2021/07/29 14:32:56;;;;;;;18.45;6.50;;;;;;;;;;5133745;27;20023;-76
2021/07/29 14:35:23;;;;;;;17.73;6.78;;;;;;;;;;5115026;27;20027;-75
2021/07/29 14:37:49;;;;;;;18.50;6.13;;;;;;;;;;5133769;27;20027;-75
2021/07/29 14:40:15;;;;;;;19.38;6.53;;;;;;;;;;5133851;27;20464;-76